createdAt,value
2018-06-11T00:00:04.594Z,24.36
2018-06-11T00:01:04.345Z,24.4
2018-06-11T00:02:04.370Z,24.39
2018-06-11T00:03:04.395Z,24.3
2018-06-11T00:04:04.165Z,24.33
2018-06-11T00:05:04.462Z,24.28
2018-06-11T00:06:04.467Z,24.21
2018-06-11T00:07:04.233Z,24.2
2018-06-11T00:08:04.789Z,24.21
2018-06-11T00:09:04.570Z,24.18
2018-06-11T00:10:04.891Z,24.17
2018-06-11T00:11:04.593Z,24.16
2018-06-11T00:12:04.904Z,24.16
2018-06-11T00:13:04.668Z,24.11
2018-06-11T00:14:04.425Z,24.08
2018-06-11T00:15:04.725Z,24.16
2018-06-11T00:16:05.005Z,24.01
2018-06-11T00:17:04.760Z,24.06
2018-06-11T00:18:05.074Z,24.06
2018-06-11T00:19:04.809Z,24.03
2018-06-11T00:20:04.860Z,24.02
2018-06-11T00:21:04.850Z,24.05
2018-06-11T00:22:05.163Z,23.96
2018-06-11T00:23:05.393Z,23.93
2018-06-11T00:24:05.217Z,23.93
2018-06-11T00:25:05.226Z,23.99
2018-06-11T00:26:05.292Z,23.91
2018-06-11T00:27:05.288Z,23.87
2018-06-11T00:28:04.779Z,23.93
2018-06-11T00:29:05.328Z,23.86
2018-06-11T00:30:05.399Z,23.86
2018-06-11T00:31:05.398Z,23.87
2018-06-11T00:32:05.401Z,23.81
2018-06-11T00:33:05.455Z,23.8
2018-06-11T00:34:05.479Z,23.84
2018-06-11T00:35:05.235Z,23.76
2018-06-11T00:36:05.571Z,23.78
2018-06-11T00:37:05.538Z,23.69
2018-06-11T00:38:05.292Z,23.81
2018-06-11T00:39:05.325Z,23.76
2018-06-11T00:40:05.644Z,23.74
2018-06-11T00:41:05.637Z,23.71
2018-06-11T00:42:05.678Z,23.71
2018-06-11T00:43:05.150Z,23.69
2018-06-11T00:44:05.452Z,23.83
2018-06-11T00:45:05.206Z,23.71
2018-06-11T00:46:05.513Z,23.77
2018-06-11T00:47:05.785Z,23.68
2018-06-11T00:48:05.828Z,23.73
2018-06-11T00:49:05.847Z,23.69
2018-06-11T00:50:05.336Z,23.62
2018-06-11T00:51:05.636Z,23.66
2018-06-11T00:52:05.639Z,23.66
2018-06-11T00:53:05.696Z,23.63
2018-06-11T00:54:05.748Z,23.58
2018-06-11T00:55:05.982Z,23.61
2018-06-11T00:56:05.784Z,23.56
2018-06-11T00:57:06.035Z,23.54
2018-06-11T00:58:05.809Z,23.55
2018-06-11T00:59:06.101Z,23.55
2018-06-11T01:00:06.142Z,23.51
2018-06-11T01:01:06.171Z,23.46
2018-06-11T01:02:05.926Z,23.46
2018-06-11T01:03:05.956Z,23.44
2018-06-11T01:04:05.968Z,23.48
2018-06-11T01:05:05.998Z,23.46
2018-06-11T01:06:06.281Z,23.4
2018-06-11T01:07:06.020Z,23.39
2018-06-11T01:08:06.081Z,23.43
2018-06-11T01:09:06.078Z,23.36
2018-06-11T01:10:05.855Z,23.39
2018-06-11T01:11:06.136Z,23.37
2018-06-11T01:12:06.170Z,23.37
2018-06-11T01:13:06.181Z,23.36
2018-06-11T01:14:06.229Z,23.34
2018-06-11T01:15:06.510Z,23.39
2018-06-11T01:16:06.270Z,23.27
2018-06-11T01:17:06.017Z,23.34
2018-06-11T01:18:06.048Z,23.21
2018-06-11T01:19:06.067Z,23.37
2018-06-11T01:20:06.098Z,23.25
2018-06-11T01:21:06.377Z,23.24
2018-06-11T01:22:06.412Z,23.24
2018-06-11T01:23:06.444Z,23.15
2018-06-11T01:24:06.461Z,23.27
2018-06-11T01:25:06.770Z,23.21
2018-06-11T01:26:06.510Z,23.21
2018-06-11T01:27:06.820Z,23.27
2018-06-11T01:28:06.557Z,23.23
2018-06-11T01:29:06.331Z,23.17
2018-06-11T01:30:06.900Z,23.2
2018-06-11T01:31:06.369Z,23.13
2018-06-11T01:32:06.388Z,23.15
2018-06-11T01:33:06.695Z,23.1
2018-06-11T01:34:06.431Z,23.2
2018-06-11T01:35:07.015Z,23.13
2018-06-11T01:36:07.047Z,23.12
2018-06-11T01:37:06.538Z,23.13
2018-06-11T01:38:06.817Z,23.03
2018-06-11T01:39:06.831Z,23.09
2018-06-11T01:40:06.922Z,22.99
2018-06-11T01:41:07.154Z,23.02
2018-06-11T01:42:06.927Z,23.02
2018-06-11T01:43:06.940Z,23
2018-06-11T01:44:06.970Z,23.05
2018-06-11T01:45:07.246Z,22.99
2018-06-11T01:46:06.730Z,23
2018-06-11T01:47:07.030Z,22.99
2018-06-11T01:48:07.062Z,22.98
2018-06-11T01:49:07.387Z,22.99
2018-06-11T01:50:07.395Z,22.99
2018-06-11T01:51:07.146Z,22.96
2018-06-11T01:52:06.877Z,22.96
2018-06-11T01:53:06.917Z,22.9
2018-06-11T01:54:07.497Z,22.93
2018-06-11T01:55:07.248Z,22.88
2018-06-11T01:56:06.997Z,22.91
2018-06-11T01:57:07.300Z,22.88
2018-06-11T01:58:07.582Z,22.9
2018-06-11T01:59:07.604Z,22.88
2018-06-11T02:00:07.424Z,22.85
2018-06-11T02:01:07.649Z,22.85
2018-06-11T02:02:07.414Z,22.9
2018-06-11T02:03:07.698Z,22.84
2018-06-11T02:04:07.722Z,22.83
2018-06-11T02:05:07.478Z,22.91
2018-06-11T02:06:07.776Z,22.85
2018-06-11T02:07:07.545Z,22.9
2018-06-11T02:08:07.302Z,22.87
2018-06-11T02:09:07.849Z,22.83
2018-06-11T02:10:07.861Z,22.81
2018-06-11T02:11:07.634Z,22.84
2018-06-11T02:12:07.669Z,22.88
2018-06-11T02:13:07.683Z,22.88
2018-06-11T02:14:07.996Z,22.88
2018-06-11T02:15:08.063Z,22.73
2018-06-11T02:16:08.033Z,22.83
2018-06-11T02:17:07.781Z,22.85
2018-06-11T02:18:08.090Z,22.8
2018-06-11T02:19:08.106Z,22.87
2018-06-11T02:20:08.125Z,22.72
2018-06-11T02:21:08.148Z,22.7
2018-06-11T02:22:08.185Z,22.69
2018-06-11T02:23:07.924Z,22.72
2018-06-11T02:24:07.951Z,22.7
2018-06-11T02:25:07.709Z,22.72
2018-06-11T02:26:08.266Z,22.69
2018-06-11T02:27:08.322Z,22.7
2018-06-11T02:28:08.059Z,22.69
2018-06-11T02:29:08.363Z,22.75
2018-06-11T02:30:08.109Z,22.72
2018-06-11T02:31:07.866Z,22.7
2018-06-11T02:32:08.431Z,22.7
2018-06-11T02:33:08.181Z,22.68
2018-06-11T02:34:07.921Z,22.63
2018-06-11T02:35:08.517Z,22.57
2018-06-11T02:36:08.255Z,22.6
2018-06-11T02:37:08.541Z,22.62
2018-06-11T02:38:08.578Z,22.65
2018-06-11T02:39:08.318Z,22.6
2018-06-11T02:40:08.622Z,22.6
2018-06-11T02:41:08.630Z,22.65
2018-06-11T02:42:08.671Z,22.57
2018-06-11T02:43:08.711Z,22.5
2018-06-11T02:44:08.717Z,22.5
2018-06-11T02:45:08.467Z,22.53
2018-06-11T02:46:08.766Z,22.5
2018-06-11T02:47:08.803Z,22.45
2018-06-11T02:48:08.271Z,22.44
2018-06-11T02:49:08.301Z,22.51
2018-06-11T02:50:08.314Z,22.45
2018-06-11T02:51:08.623Z,22.43
2018-06-11T02:52:08.641Z,22.47
2018-06-11T02:53:08.664Z,22.47
2018-06-11T02:54:08.688Z,22.48
2018-06-11T02:55:08.729Z,22.44
2018-06-11T02:56:08.744Z,22.44
2018-06-11T02:57:09.033Z,22.54
2018-06-11T02:58:08.527Z,22.48
2018-06-11T02:59:08.810Z,22.48
2018-06-11T03:00:09.092Z,22.44
2018-06-11T03:01:08.862Z,22.51
2018-06-11T03:02:08.869Z,22.48
2018-06-11T03:03:09.175Z,22.5
2018-06-11T03:04:09.201Z,22.54
2018-06-11T03:05:08.953Z,22.5
2018-06-11T03:06:09.238Z,22.48
2018-06-11T03:07:09.255Z,22.44
2018-06-11T03:08:09.308Z,22.47
2018-06-11T03:09:09.068Z,22.36
2018-06-11T03:10:09.332Z,22.38
2018-06-11T03:11:09.373Z,22.44
2018-06-11T03:12:09.381Z,22.45
2018-06-11T03:13:09.413Z,22.41
2018-06-11T03:14:09.442Z,22.41
2018-06-11T03:15:09.464Z,22.43
2018-06-11T03:16:09.232Z,22.38
2018-06-11T03:17:09.265Z,22.38
2018-06-11T03:18:09.272Z,22.33
2018-06-11T03:19:09.575Z,22.43
2018-06-11T03:20:09.335Z,22.41
2018-06-11T03:21:09.682Z,22.35
2018-06-11T03:22:09.637Z,22.36
2018-06-11T03:23:09.389Z,22.38
2018-06-11T03:24:09.696Z,22.35
2018-06-11T03:25:09.712Z,22.35
2018-06-11T03:26:09.245Z,22.39
2018-06-11T03:27:09.758Z,22.33
2018-06-11T03:28:09.822Z,22.3
2018-06-11T03:29:09.530Z,22.32
2018-06-11T03:30:09.571Z,22.36
2018-06-11T03:31:09.595Z,22.36
2018-06-11T03:32:09.611Z,22.36
2018-06-11T03:33:09.902Z,22.28
2018-06-11T03:34:09.927Z,22.3
2018-06-11T03:35:09.968Z,22.38
2018-06-11T03:36:09.994Z,22.36
2018-06-11T03:37:09.996Z,22.41
2018-06-11T03:38:09.735Z,22.32
2018-06-11T03:39:10.051Z,22.33
2018-06-11T03:40:10.063Z,22.3
2018-06-11T03:41:09.879Z,22.32
2018-06-11T03:42:09.863Z,22.32
2018-06-11T03:43:10.140Z,22.32
2018-06-11T03:44:10.195Z,22.33
2018-06-11T03:45:09.933Z,22.36
2018-06-11T03:46:09.948Z,22.38
2018-06-11T03:47:10.246Z,22.32
2018-06-11T03:48:09.999Z,22.36
2018-06-11T03:49:10.300Z,22.33
2018-06-11T03:50:10.058Z,22.35
2018-06-11T03:51:10.346Z,22.39
2018-06-11T03:52:10.099Z,22.32
2018-06-11T03:53:10.121Z,22.36
2018-06-11T03:54:10.426Z,22.38
2018-06-11T03:55:10.449Z,22.33
2018-06-11T03:56:10.195Z,22.39
2018-06-11T03:57:10.232Z,22.35
2018-06-11T03:58:10.235Z,22.38
2018-06-11T03:59:10.253Z,22.33
2018-06-11T04:00:10.580Z,22.39
2018-06-11T04:01:10.332Z,22.38
2018-06-11T04:02:10.341Z,22.38
2018-06-11T04:03:10.662Z,22.38
2018-06-11T04:04:10.380Z,22.36
2018-06-11T04:05:10.686Z,22.39
2018-06-11T04:06:10.228Z,22.39
2018-06-11T04:07:10.751Z,22.39
2018-06-11T04:08:10.470Z,22.41
2018-06-11T04:09:10.771Z,22.36
2018-06-11T04:10:10.797Z,22.44
2018-06-11T04:11:10.780Z,22.48
2018-06-11T04:12:10.837Z,22.5
2018-06-11T04:13:10.880Z,22.45
2018-06-11T04:14:10.888Z,22.41
2018-06-11T04:15:10.654Z,22.39
2018-06-11T04:16:10.950Z,22.5
2018-06-11T04:17:10.975Z,22.47
2018-06-11T04:18:10.455Z,22.48
2018-06-11T04:19:10.736Z,22.5
2018-06-11T04:20:11.041Z,22.54
2018-06-11T04:21:11.104Z,22.47
2018-06-11T04:22:10.820Z,22.48
2018-06-11T04:23:11.132Z,22.51
2018-06-11T04:24:11.147Z,22.48
2018-06-11T04:25:11.180Z,22.55
2018-06-11T04:26:11.237Z,22.5
2018-06-11T04:27:11.215Z,22.48
2018-06-11T04:28:11.255Z,22.44
2018-06-11T04:29:11.246Z,22.48
2018-06-11T04:30:11.027Z,22.44
2018-06-11T04:31:11.036Z,22.53
2018-06-11T04:32:11.059Z,22.48
2018-06-11T04:33:11.336Z,22.59
2018-06-11T04:34:11.384Z,22.45
2018-06-11T04:35:11.128Z,22.5
2018-06-11T04:36:11.476Z,22.57
2018-06-11T04:37:11.439Z,22.48
2018-06-11T04:38:11.483Z,22.47
2018-06-11T04:39:11.479Z,22.45
2018-06-11T04:40:11.527Z,22.48
2018-06-11T04:41:11.283Z,22.48
2018-06-11T04:42:11.566Z,22.44
2018-06-11T04:43:11.580Z,22.51
2018-06-11T04:44:11.618Z,22.53
2018-06-11T04:45:11.663Z,22.51
2018-06-11T04:46:11.407Z,22.47
2018-06-11T04:47:11.431Z,22.54
2018-06-11T04:48:11.453Z,22.53
2018-06-11T04:49:11.742Z,22.62
2018-06-11T04:50:11.506Z,22.48
2018-06-11T04:51:11.522Z,22.51
2018-06-11T04:52:11.527Z,22.53
2018-06-11T04:53:11.831Z,22.6
2018-06-11T04:54:11.616Z,22.54
2018-06-11T04:55:11.737Z,22.55
2018-06-11T04:56:11.686Z,22.63
2018-06-11T04:57:11.952Z,22.6
2018-06-11T04:58:11.951Z,22.62
2018-06-11T04:59:11.711Z,22.59
2018-06-11T05:00:11.754Z,22.57
2018-06-11T05:01:12.080Z,22.62
2018-06-11T05:02:11.521Z,22.62
2018-06-11T05:03:11.823Z,22.72
2018-06-11T05:04:11.833Z,22.63
2018-06-11T05:05:12.149Z,22.69
2018-06-11T05:06:12.223Z,22.69
2018-06-11T05:07:12.191Z,22.68
2018-06-11T05:08:12.290Z,22.72
2018-06-11T05:09:12.240Z,22.68
2018-06-11T05:10:12.487Z,22.7
2018-06-11T05:11:12.052Z,22.72
2018-06-11T05:12:12.027Z,22.8
2018-06-11T05:13:12.063Z,22.66
2018-06-11T05:14:12.346Z,22.76
2018-06-11T05:15:12.108Z,22.81
2018-06-11T05:16:12.118Z,22.84
2018-06-11T05:17:12.421Z,22.83
2018-06-11T05:18:12.172Z,22.78
2018-06-11T05:19:12.461Z,22.78
2018-06-11T05:20:12.597Z,22.84
2018-06-11T05:21:12.304Z,22.84
2018-06-11T05:22:12.007Z,22.83
2018-06-11T05:23:12.022Z,22.87
2018-06-11T05:24:12.321Z,22.83
2018-06-11T05:25:12.325Z,22.83
2018-06-11T05:26:12.432Z,22.84
2018-06-11T05:27:12.672Z,22.93
2018-06-11T05:28:12.140Z,22.81
2018-06-11T05:29:12.447Z,22.84
2018-06-11T05:30:12.725Z,22.91
2018-06-11T05:31:12.820Z,22.8
2018-06-11T05:32:12.254Z,22.85
2018-06-11T05:33:12.808Z,22.88
2018-06-11T05:34:12.550Z,22.88
2018-06-11T05:35:12.597Z,22.88
2018-06-11T05:36:12.606Z,22.88
2018-06-11T05:37:12.887Z,22.88
2018-06-11T05:38:12.711Z,22.9
2018-06-11T05:39:12.945Z,22.93
2018-06-11T05:40:12.983Z,22.94
2018-06-11T05:41:12.779Z,22.9
2018-06-11T05:42:13.042Z,22.87
2018-06-11T05:43:13.051Z,22.94
2018-06-11T05:44:13.067Z,22.91
2018-06-11T05:45:13.114Z,22.94
2018-06-11T05:46:12.844Z,22.99
2018-06-11T05:47:12.894Z,22.94
2018-06-11T05:48:13.171Z,22.94
2018-06-11T05:49:12.653Z,22.96
2018-06-11T05:50:12.946Z,22.94
2018-06-11T05:51:13.301Z,22.9
2018-06-11T05:52:13.263Z,22.93
2018-06-11T05:53:13.301Z,22.93
2018-06-11T05:54:13.321Z,22.93
2018-06-11T05:55:13.062Z,22.91
2018-06-11T05:56:13.365Z,22.93
2018-06-11T05:57:13.114Z,22.88
2018-06-11T05:58:13.460Z,22.93
2018-06-11T05:59:12.902Z,22.91
2018-06-11T06:00:12.928Z,22.85
2018-06-11T06:01:13.474Z,22.93
2018-06-11T06:02:13.540Z,22.93
2018-06-11T06:03:13.561Z,22.93
2018-06-11T06:04:13.290Z,22.94
2018-06-11T06:05:13.583Z,23
2018-06-11T06:06:13.078Z,22.99
2018-06-11T06:07:13.656Z,22.96
2018-06-11T06:08:13.659Z,22.98
2018-06-11T06:09:13.415Z,23
2018-06-11T06:10:13.431Z,22.98
2018-06-11T06:11:13.743Z,23.02
2018-06-11T06:12:13.490Z,22.99
2018-06-11T06:13:13.250Z,23.08
2018-06-11T06:14:13.950Z,23.13
2018-06-11T06:15:13.563Z,23.08
2018-06-11T06:16:13.860Z,23.08
2018-06-11T06:17:13.626Z,23.12
2018-06-11T06:18:13.615Z,23.1
2018-06-11T06:19:13.927Z,23.21
2018-06-11T06:20:13.959Z,23.18
2018-06-11T06:21:13.700Z,23.18
2018-06-11T06:22:13.986Z,23.2
2018-06-11T06:23:14.027Z,23.2
2018-06-11T06:24:13.776Z,23.2
2018-06-11T06:25:14.068Z,23.24
2018-06-11T06:26:13.848Z,23.21
2018-06-11T06:27:14.137Z,23.28
2018-06-11T06:28:14.141Z,23.24
2018-06-11T06:29:14.178Z,23.23
2018-06-11T06:30:14.193Z,23.21
2018-06-11T06:31:14.202Z,23.27
2018-06-11T06:32:14.025Z,23.25
2018-06-11T06:33:14.002Z,23.23
2018-06-11T06:34:14.674Z,23.27
2018-06-11T06:35:14.035Z,23.23
2018-06-11T06:36:14.362Z,23.24
2018-06-11T06:37:14.137Z,23.24
2018-06-11T06:38:14.138Z,23.23
2018-06-11T06:39:14.427Z,23.2
2018-06-11T06:40:14.466Z,23.24
2018-06-11T06:41:14.190Z,23.31
2018-06-11T06:42:14.540Z,23.2
2018-06-11T06:43:14.511Z,23.18
2018-06-11T06:44:14.529Z,23.25
2018-06-11T06:45:14.580Z,23.24
2018-06-11T06:46:14.575Z,23.39
2018-06-11T06:47:14.076Z,23.37
2018-06-11T06:48:14.635Z,23.27
2018-06-11T06:49:14.110Z,23.25
2018-06-11T06:50:14.410Z,23.25
2018-06-11T06:51:14.452Z,23.34
2018-06-11T06:52:14.460Z,23.39
2018-06-11T06:53:14.745Z,23.36
2018-06-11T06:54:14.805Z,23.36
2018-06-11T06:55:14.877Z,23.41
2018-06-11T06:56:14.561Z,23.37
2018-06-11T06:57:14.912Z,23.39
2018-06-11T06:58:14.350Z,23.37
2018-06-11T06:59:14.896Z,23.37
2018-06-11T07:00:14.929Z,23.37
2018-06-11T07:01:14.682Z,23.37
2018-06-11T07:02:15.028Z,23.36
2018-06-11T07:03:14.744Z,23.44
2018-06-11T07:04:15.042Z,23.41
2018-06-11T07:05:15.045Z,23.51
2018-06-11T07:06:14.818Z,23.44
2018-06-11T07:07:14.849Z,23.5
2018-06-11T07:08:14.961Z,23.5
2018-06-11T07:09:14.616Z,23.44
2018-06-11T07:10:14.915Z,23.46
2018-06-11T07:11:15.193Z,23.55
2018-06-11T07:12:15.219Z,23.51
2018-06-11T07:13:14.989Z,23.54
2018-06-11T07:14:15.285Z,23.59
2018-06-11T07:15:15.023Z,23.62
2018-06-11T07:16:15.334Z,23.63
2018-06-11T07:17:15.352Z,23.68
2018-06-11T07:18:15.384Z,23.66
2018-06-11T07:19:15.401Z,23.71
2018-06-11T07:20:15.440Z,23.73
2018-06-11T07:21:15.194Z,23.71
2018-06-11T07:22:15.465Z,23.73
2018-06-11T07:23:15.514Z,23.76
2018-06-11T07:24:15.268Z,23.69
2018-06-11T07:25:15.556Z,23.8
2018-06-11T07:26:15.291Z,23.83
2018-06-11T07:27:15.099Z,23.76
2018-06-11T07:28:15.649Z,23.91
2018-06-11T07:29:15.631Z,23.87
2018-06-11T07:30:15.684Z,23.91
2018-06-11T07:31:15.774Z,23.91
2018-06-11T07:32:15.738Z,24.02
2018-06-11T07:33:15.478Z,23.99
2018-06-11T07:34:15.511Z,24.1
2018-06-11T07:35:15.783Z,24.13
2018-06-11T07:36:15.819Z,24.1
2018-06-11T07:37:15.588Z,24.08
2018-06-11T07:38:15.596Z,24.03
2018-06-11T07:39:15.952Z,24.03
2018-06-11T07:40:15.933Z,24.16
2018-06-11T07:41:15.681Z,24.16
2018-06-11T07:42:15.697Z,24.16
2018-06-11T07:43:16.007Z,24.16
2018-06-11T07:44:16.023Z,24.17
2018-06-11T07:45:15.785Z,24.17
2018-06-11T07:46:16.067Z,24.2
2018-06-11T07:47:16.089Z,24.21
2018-06-11T07:48:16.199Z,24.21
2018-06-11T07:49:16.149Z,24.26
2018-06-11T07:50:16.180Z,24.18
2018-06-11T07:51:15.927Z,24.23
2018-06-11T07:52:15.957Z,24.28
2018-06-11T07:53:16.256Z,24.32
2018-06-11T07:54:16.304Z,24.4
2018-06-11T07:55:16.783Z,24.36
2018-06-11T07:56:16.335Z,24.28
2018-06-11T07:57:16.095Z,24.4
2018-06-11T07:58:16.104Z,24.4
2018-06-11T07:59:16.404Z,24.42
2018-06-11T08:00:16.161Z,24.4
2018-06-11T08:01:16.176Z,24.39
2018-06-11T08:02:16.458Z,24.47
2018-06-11T08:03:16.496Z,24.43
2018-06-11T08:04:16.279Z,24.5
2018-06-11T08:05:16.551Z,24.53
2018-06-11T08:06:16.298Z,24.55
2018-06-11T08:07:16.590Z,24.47
2018-06-11T08:08:16.609Z,24.6
2018-06-11T08:09:16.634Z,24.65
2018-06-11T08:10:16.401Z,24.6
2018-06-11T08:11:16.440Z,24.61
2018-06-11T08:12:16.717Z,24.65
2018-06-11T08:13:16.476Z,24.66
2018-06-11T08:14:16.507Z,24.76
2018-06-11T08:15:16.553Z,24.8
2018-06-11T08:16:16.311Z,24.78
2018-06-11T08:17:16.855Z,24.88
2018-06-11T08:18:16.885Z,24.8
2018-06-11T08:19:16.898Z,24.88
2018-06-11T08:20:16.649Z,24.85
2018-06-11T08:21:16.981Z,24.89
2018-06-11T08:22:16.725Z,24.98
2018-06-11T08:23:16.747Z,24.98
2018-06-11T08:24:16.764Z,24.96
2018-06-11T08:25:17.052Z,25.11
2018-06-11T08:26:17.081Z,25.08
2018-06-11T08:27:16.838Z,25.16
2018-06-11T08:28:17.134Z,25.17
2018-06-11T08:29:17.159Z,25.16
2018-06-11T08:30:16.899Z,25.23
2018-06-11T08:31:17.199Z,25.22
2018-06-11T08:32:17.233Z,25.29
2018-06-11T08:33:17.270Z,25.31
2018-06-11T08:34:17.271Z,25.35
2018-06-11T08:35:17.316Z,25.31
2018-06-11T08:36:17.072Z,25.35
2018-06-11T08:37:17.375Z,25.44
2018-06-11T08:38:17.464Z,25.48
2018-06-11T08:39:17.417Z,25.41
2018-06-11T08:40:17.186Z,25.53
2018-06-11T08:41:17.489Z,25.46
2018-06-11T08:42:17.487Z,25.47
2018-06-11T08:43:17.671Z,25.63
2018-06-11T08:44:17.571Z,25.69
2018-06-11T08:45:17.581Z,25.69
2018-06-11T08:46:17.336Z,25.77
2018-06-11T08:47:17.649Z,25.81
2018-06-11T08:48:17.710Z,25.8
2018-06-11T08:49:17.676Z,25.93
2018-06-11T08:50:17.808Z,26
2018-06-11T08:51:17.710Z,25.96
2018-06-11T08:52:17.480Z,25.99
2018-06-11T08:53:17.762Z,26.09
2018-06-11T08:54:17.818Z,26.18
2018-06-11T08:55:17.833Z,26.22
2018-06-11T08:56:17.596Z,26.22
2018-06-11T08:57:17.909Z,26.22
2018-06-11T08:58:17.900Z,26.26
2018-06-11T08:59:17.690Z,26.34
2018-06-11T09:00:17.969Z,26.38
2018-06-11T09:01:17.721Z,26.45
2018-06-11T09:02:17.743Z,26.52
2018-06-11T09:03:18.027Z,26.58
2018-06-11T09:04:17.805Z,26.56
2018-06-11T09:05:18.164Z,26.71
2018-06-11T09:06:18.152Z,26.77
2018-06-11T09:07:17.869Z,26.73
2018-06-11T09:08:17.909Z,26.75
2018-06-11T09:09:18.207Z,26.83
2018-06-11T09:10:18.235Z,26.81
2018-06-11T09:11:18.261Z,26.81
2018-06-11T09:12:18.019Z,26.9
2018-06-11T09:13:18.363Z,26.99
2018-06-11T09:14:18.338Z,26.92
2018-06-11T09:15:18.090Z,26.93
2018-06-11T09:16:18.114Z,27.03
2018-06-11T09:17:18.159Z,27
2018-06-11T09:18:18.923Z,27.05
2018-06-11T09:19:18.469Z,27.1
2018-06-11T09:20:18.476Z,27.15
2018-06-11T09:21:18.513Z,27.29
2018-06-11T09:22:18.014Z,27.25
2018-06-11T09:23:18.314Z,27.4
2018-06-11T09:24:18.609Z,27.45
2018-06-11T09:25:18.367Z,27.54
2018-06-11T09:26:18.660Z,27.52
2018-06-11T09:27:18.660Z,27.54
2018-06-11T09:28:18.499Z,27.64
2018-06-11T09:29:18.468Z,27.74
2018-06-11T09:30:18.487Z,27.71
2018-06-11T09:31:18.534Z,27.8
2018-06-11T09:32:18.549Z,27.83
2018-06-11T09:33:18.851Z,27.93
2018-06-11T09:34:18.860Z,27.96
2018-06-11T09:35:18.890Z,28
2018-06-11T09:36:18.948Z,28.02
2018-06-11T09:37:18.668Z,28.02
2018-06-11T09:38:19.167Z,28.01
2018-06-11T09:39:19.022Z,28.11
2018-06-11T09:40:19.031Z,28.12
2018-06-11T09:41:19.057Z,28.12
2018-06-11T09:42:19.099Z,28.15
2018-06-11T09:43:19.188Z,28.15
2018-06-11T09:44:19.381Z,28.2
2018-06-11T09:45:19.185Z,28.26
2018-06-11T09:46:18.941Z,28.23
2018-06-11T09:47:18.947Z,28.27
2018-06-11T09:48:19.260Z,28.25
2018-06-11T09:49:19.419Z,28.25
2018-06-11T09:50:19.034Z,28.25
2018-06-11T09:51:19.333Z,28.23
2018-06-11T09:52:19.382Z,28.3
2018-06-11T09:53:19.402Z,28.33
2018-06-11T09:54:19.469Z,28.38
2018-06-11T09:55:19.507Z,28.41
2018-06-11T09:56:19.454Z,28.39
2018-06-11T09:57:19.508Z,28.51
2018-06-11T09:58:19.528Z,28.52
2018-06-11T09:59:19.540Z,28.63
2018-06-11T10:00:19.310Z,28.62
2018-06-11T10:01:19.641Z,28.59
2018-06-11T10:02:19.828Z,28.64
2018-06-11T10:03:19.689Z,28.66
2018-06-11T10:04:19.699Z,28.72
2018-06-11T10:05:19.461Z,28.67
2018-06-11T10:06:19.762Z,28.78
2018-06-11T10:07:19.528Z,28.76
2018-06-11T10:08:19.810Z,28.75
2018-06-11T10:09:19.344Z,28.75
2018-06-11T10:10:19.875Z,28.79
2018-06-11T10:11:19.885Z,28.82
2018-06-11T10:12:20.143Z,28.81
2018-06-11T10:13:19.949Z,28.91
2018-06-11T10:14:20.026Z,28.88
2018-06-11T10:15:20.012Z,28.88
2018-06-11T10:16:20.037Z,28.91
2018-06-11T10:17:19.791Z,28.97
2018-06-11T10:18:20.086Z,28.97
2018-06-11T10:19:19.890Z,28.98
2018-06-11T10:20:20.147Z,28.98
2018-06-11T10:21:20.179Z,29.07
2018-06-11T10:22:20.186Z,29.01
2018-06-11T10:23:20.228Z,29.1
2018-06-11T10:24:20.269Z,28.98
2018-06-11T10:25:20.271Z,29.1
2018-06-11T10:26:20.308Z,29.12
2018-06-11T10:27:20.352Z,29.1
2018-06-11T10:28:20.091Z,29.17
2018-06-11T10:29:20.395Z,29.14
2018-06-11T10:30:20.429Z,29.16
2018-06-11T10:31:20.443Z,29.14
2018-06-11T10:32:20.300Z,29.36
2018-06-11T10:33:20.228Z,29.36
2018-06-11T10:34:20.273Z,29.34
2018-06-11T10:35:20.292Z,29.34
2018-06-11T10:36:20.602Z,29.29
2018-06-11T10:37:20.600Z,29.32
2018-06-11T10:38:20.654Z,29.39
2018-06-11T10:39:20.466Z,29.36
2018-06-11T10:40:20.693Z,29.41
2018-06-11T10:41:20.742Z,29.51
2018-06-11T10:42:20.791Z,29.53
2018-06-11T10:43:20.539Z,29.49
2018-06-11T10:44:20.888Z,29.59
2018-06-11T10:45:20.867Z,29.6
2018-06-11T10:46:20.887Z,29.66
2018-06-11T10:47:20.909Z,29.75
2018-06-11T10:48:20.664Z,29.73
2018-06-11T10:49:20.996Z,29.76
2018-06-11T10:50:21.025Z,29.86
2018-06-11T10:51:20.767Z,29.84
2018-06-11T10:54:19.050Z,30.08
2018-06-11T10:55:18.806Z,30.05
2018-06-11T10:56:19.089Z,30.1
2018-06-11T10:57:19.110Z,30.18
2018-06-11T10:58:18.896Z,30.16
2018-06-11T10:59:19.176Z,30.16
2018-06-11T11:00:18.943Z,30.25
2018-06-11T11:01:19.236Z,30.24
2018-06-11T11:02:19.280Z,30.3
2018-06-11T11:03:19.025Z,30.47
2018-06-11T11:04:19.049Z,30.44
2018-06-11T11:05:19.345Z,30.51
2018-06-11T11:06:19.363Z,30.57
2018-06-11T11:07:19.428Z,30.63
2018-06-11T11:08:19.170Z,30.72
2018-06-11T11:09:19.491Z,30.75
2018-06-11T11:10:19.235Z,30.68
2018-06-11T11:11:18.996Z,30.77
2018-06-11T11:12:19.286Z,30.81
2018-06-11T11:13:19.604Z,30.92
2018-06-11T11:14:19.408Z,30.92
2018-06-11T11:15:19.378Z,30.91
2018-06-11T11:16:19.675Z,31.05
2018-06-11T11:17:19.434Z,31.02
2018-06-11T11:18:19.754Z,31.07
2018-06-11T11:19:19.753Z,31
2018-06-11T11:20:19.528Z,31.07
2018-06-11T11:21:19.570Z,31.17
2018-06-11T11:22:19.586Z,31.15
2018-06-11T11:23:19.888Z,31.29
2018-06-11T11:24:19.373Z,31.25
2018-06-11T11:25:19.942Z,31.31
2018-06-11T11:26:19.970Z,31.34
2018-06-11T11:27:19.987Z,31.25
2018-06-11T11:28:20.047Z,31.29
2018-06-11T11:29:20.076Z,31.4
2018-06-11T11:30:19.545Z,31.44
2018-06-11T11:31:20.118Z,31.52
2018-06-11T11:32:19.891Z,31.51
2018-06-11T11:33:20.206Z,31.58
2018-06-11T11:34:20.222Z,31.59
2018-06-11T11:35:19.977Z,31.59
2018-06-11T11:36:20.296Z,31.56
2018-06-11T11:37:20.291Z,31.51
2018-06-11T11:38:20.060Z,31.54
2018-06-11T11:39:20.099Z,31.54
2018-06-11T11:40:20.118Z,31.52
2018-06-11T11:41:19.876Z,31.49
2018-06-11T11:42:20.448Z,31.56
2018-06-11T11:43:20.485Z,31.54
2018-06-11T11:44:20.223Z,31.47
2018-06-11T11:45:20.549Z,31.43
2018-06-11T11:46:20.312Z,31.46
2018-06-11T11:47:20.614Z,31.55
2018-06-11T11:48:20.614Z,31.42
2018-06-11T11:49:20.392Z,31.46
2018-06-11T11:50:20.685Z,31.47
2018-06-11T11:51:20.733Z,31.52
2018-06-11T11:52:20.472Z,31.54
2018-06-11T11:53:20.504Z,31.51
2018-06-11T11:54:20.804Z,31.42
2018-06-11T11:55:20.879Z,31.54
2018-06-11T11:56:20.853Z,31.58
2018-06-11T11:57:20.943Z,31.71
2018-06-11T11:58:20.954Z,31.74
2018-06-11T11:59:20.960Z,31.81
2018-06-11T12:00:20.723Z,31.9
2018-06-11T12:01:21.003Z,31.92
2018-06-11T12:02:21.037Z,32.08
2018-06-11T12:03:21.086Z,32.09
2018-06-11T12:04:21.126Z,32.16
2018-06-11T12:05:20.867Z,32.31
2018-06-11T12:06:20.642Z,32.43
2018-06-11T12:07:21.213Z,32.46
2018-06-11T12:08:21.233Z,32.56
2018-06-11T12:09:20.991Z,32.58
2018-06-11T12:10:21.026Z,32.74
2018-06-11T12:11:21.066Z,32.86
2018-06-11T12:12:21.364Z,32.9
2018-06-11T12:13:21.132Z,32.92
2018-06-11T12:14:21.139Z,33.04
2018-06-11T12:15:21.450Z,33.15
2018-06-11T12:16:21.470Z,33.28
2018-06-11T12:17:21.524Z,33.37
2018-06-11T12:18:21.540Z,33.4
2018-06-11T12:19:21.570Z,33.45
2018-06-11T12:20:21.321Z,33.65
2018-06-11T12:21:21.096Z,33.67
2018-06-11T12:22:21.387Z,33.73
2018-06-11T12:23:21.710Z,33.81
2018-06-11T12:24:21.714Z,33.92
2018-06-11T12:25:21.504Z,34.08
2018-06-11T12:26:21.528Z,34.13
2018-06-11T12:27:21.801Z,34.2
2018-06-11T12:28:21.306Z,34.32
2018-06-11T12:29:21.609Z,34.39
2018-06-11T12:30:21.628Z,34.47
2018-06-11T12:31:22.068Z,34.57
2018-06-11T12:32:21.715Z,34.73
2018-06-11T12:33:22.013Z,34.74
2018-06-11T12:34:21.756Z,34.74
2018-06-11T12:35:22.086Z,34.93
2018-06-11T12:36:22.110Z,34.99
2018-06-11T12:37:22.117Z,35.08
2018-06-11T12:38:21.932Z,35.05
2018-06-11T12:39:21.915Z,35.14
2018-06-11T12:40:22.231Z,35.24
2018-06-11T12:41:22.237Z,35.31
2018-06-11T12:42:22.301Z,35.31
2018-06-11T12:43:22.060Z,35.46
2018-06-11T12:44:22.326Z,35.49
2018-06-11T12:45:22.434Z,35.64
2018-06-11T12:46:22.389Z,35.64
2018-06-11T12:47:22.180Z,35.8
2018-06-11T12:48:22.462Z,35.8
2018-06-11T12:49:22.231Z,35.89
2018-06-11T12:50:22.604Z,35.82
2018-06-11T12:51:22.600Z,36.02
2018-06-11T12:52:22.340Z,36.02
2018-06-11T12:53:22.649Z,36.07
2018-06-11T12:54:22.666Z,36.21
2018-06-11T12:55:22.834Z,36.23
2018-06-11T12:56:23.017Z,36.33
2018-06-11T12:57:22.762Z,36.39
2018-06-11T12:58:22.807Z,36.37